Time;durP1;ratioP1;P1;durP2;ratioP2;P2;SDS_P1;SDS_P2;PMS_P1;PMS_P2;Temp;Humidity;BMP_temperature;BMP_pressure;BME280_temperature;BME280_humidity;BME280_pressure;Samples;Min_cycle;Max_cycle;Signal;HPM_P1;HPM_P2
2022/07/08 00:01:33;;;;;;;9.37;3.57;;;17.10;1.00;;;;;;5019105;28;20730;-72
2022/07/08 00:03:59;;;;;;;12.27;3.60;;;17.00;1.00;;;;;;5007464;28;20186;-72
2022/07/08 00:06:25;;;;;;;10.73;3.23;;;16.90;1.00;;;;;;5009836;28;20432;-71
2022/07/08 00:08:50;;;;;;;10.70;3.10;;;17.00;1.00;;;;;;5004087;28;21054;-71
2022/07/08 00:11:16;;;;;;;7.47;3.50;;;17.00;1.00;;;;;;5007349;28;20277;-71
2022/07/08 00:13:41;;;;;;;6.37;3.43;;;16.90;1.00;;;;;;5009186;28;20198;-71
2022/07/08 00:16:07;;;;;;;8.03;3.13;;;16.80;1.00;;;;;;4998699;28;20223;-71
2022/07/08 00:18:33;;;;;;;7.07;3.10;;;16.70;1.00;;;;;;5015096;28;20233;-71
2022/07/08 00:20:58;;;;;;;6.73;3.43;;;16.70;1.00;;;;;;5009070;28;20540;-73
2022/07/08 00:23:24;;;;;;;3.90;2.70;;;16.70;1.00;;;;;;5007408;28;20285;-71
2022/07/08 00:25:49;;;;;;;6.77;3.23;;;16.90;1.00;;;;;;5009399;28;20202;-71
2022/07/08 00:28:15;;;;;;;7.23;3.33;;;16.60;1.00;;;;;;5007646;28;20175;-71
2022/07/08 00:30:40;;;;;;;5.67;3.10;;;16.60;1.00;;;;;;5009266;28;20269;-72
2022/07/08 00:33:06;;;;;;;7.97;3.30;;;16.50;1.00;;;;;;5006050;28;20417;-72
2022/07/08 00:35:31;;;;;;;8.50;3.37;;;18.40;1.00;;;;;;4999228;28;20649;-72
2022/07/08 00:37:57;;;;;;;11.53;3.83;;;16.40;1.00;;;;;;5016340;28;20526;-71
2022/07/08 00:40:23;;;;;;;9.03;3.50;;;16.40;1.00;;;;;;5008850;28;20178;-72
2022/07/08 00:42:48;;;;;;;8.50;3.33;;;16.30;1.00;;;;;;5008051;28;20190;-71
2022/07/08 00:45:17;;;;;;;12.73;3.60;;;16.20;1.00;;;;;;5009425;28;20233;-72
2022/07/08 00:47:43;;;;;;;3.70;3.10;;;16.10;1.00;;;;;;5006354;28;20665;-71
2022/07/08 00:50:09;;;;;;;9.20;3.63;;;16.10;1.00;;;;;;5007738;28;20461;-70
2022/07/08 00:52:37;;;;;;;7.80;3.87;;;16.10;1.00;;;;;;5006960;28;20257;-71
2022/07/08 00:55:03;;;;;;;6.63;3.50;;;16.00;1.00;;;;;;5009213;28;20979;-71
2022/07/08 00:57:29;;;;;;;11.77;3.50;;;16.10;1.00;;;;;;5008484;28;20567;-72
2022/07/08 00:59:56;;;;;;;7.70;3.70;;;16.00;1.00;;;;;;5020901;28;20863;-71
2022/07/08 01:02:21;;;;;;;13.60;3.97;;;16.00;1.00;;;;;;5022563;28;20179;-72
2022/07/08 01:04:47;;;;;;;11.63;4.23;;;15.90;1.00;;;;;;5007987;28;20439;-71
2022/07/08 01:07:13;;;;;;;10.90;3.77;;;15.90;1.00;;;;;;5007843;28;20198;-72
2022/07/08 01:09:39;;;;;;;9.93;3.80;;;15.80;1.00;;;;;;5007981;28;20187;-71
2022/07/08 01:12:05;;;;;;;8.90;3.60;;;15.80;1.00;;;;;;5008199;28;20197;-72
2022/07/08 01:14:31;;;;;;;6.13;3.20;;;15.80;1.00;;;;;;5007289;28;20433;-71
2022/07/08 01:16:56;;;;;;;8.90;3.97;;;15.70;1.00;;;;;;5007789;28;20233;-71
2022/07/08 01:19:22;;;;;;;6.57;3.83;;;15.70;1.00;;;;;;5006486;28;20590;-71
2022/07/08 01:21:47;;;;;;;6.83;3.43;;;15.70;1.00;;;;;;5007625;28;20174;-72
2022/07/08 01:24:13;;;;;;;7.97;4.60;;;15.60;1.00;;;;;;5006271;28;20417;-71
2022/07/08 01:26:38;;;;;;;9.10;3.90;;;15.60;1.00;;;;;;5008679;28;20201;-72
2022/07/08 01:29:04;;;;;;;11.80;4.00;;;15.60;1.00;;;;;;5011216;28;20186;-74
2022/07/08 01:31:29;;;;;;;8.33;3.70;;;15.50;1.00;;;;;;5027995;28;20258;-71
2022/07/08 01:33:55;;;;;;;6.17;3.43;;;14.80;1.00;;;;;;5010224;28;20277;-70
2022/07/08 01:36:20;;;;;;;7.63;3.63;;;15.40;1.00;;;;;;5006425;28;20209;-71
2022/07/08 01:38:46;;;;;;;10.80;3.93;;;15.30;1.00;;;;;;5006194;28;20190;-71
2022/07/08 01:41:11;;;;;;;8.33;3.30;;;15.30;1.00;;;;;;5007965;28;20322;-71
2022/07/08 01:43:37;;;;;;;7.80;3.80;;;15.20;1.00;;;;;;5007167;28;20189;-71
2022/07/08 01:46:03;;;;;;;5.53;3.20;;;15.20;1.00;;;;;;4990609;28;20564;-73
2022/07/08 01:48:28;;;;;;;6.73;3.23;;;15.10;1.00;;;;;;5006704;28;20934;-72
2022/07/08 01:50:54;;;;;;;6.27;3.40;;;15.10;1.00;;;;;;5007379;28;20194;-71
2022/07/08 01:53:19;;;;;;;8.40;3.50;;;15.10;1.00;;;;;;5006881;28;20174;-73
2022/07/08 01:55:45;;;;;;;8.53;3.60;;;15.00;1.00;;;;;;5008926;28;20601;-71
2022/07/08 01:58:11;;;;;;;9.90;4.30;;;14.90;1.00;;;;;;5007849;28;20170;-71
2022/07/08 02:00:37;;;;;;;9.80;3.80;;;14.80;1.00;;;;;;5016450;28;20443;-71
2022/07/08 02:03:02;;;;;;;8.80;3.83;;;14.70;1.00;;;;;;5014258;28;20274;-71
2022/07/08 02:05:28;;;;;;;8.20;3.60;;;14.60;1.00;;;;;;4990229;28;20166;-72
2022/07/08 02:07:53;;;;;;;6.53;4.07;;;14.60;1.00;;;;;;5006036;28;20190;-71
2022/07/08 02:10:19;;;;;;;7.10;3.50;;;14.50;1.00;;;;;;5006925;28;20268;-71
2022/07/08 02:12:45;;;;;;;16.73;4.17;;;14.50;1.00;;;;;;4989161;28;20183;-73
2022/07/08 02:15:10;;;;;;;5.80;4.10;;;14.50;1.00;;;;;;5008676;28;20201;-72
2022/07/08 02:17:41;;;;;;;7.53;3.60;;;14.40;1.00;;;;;;5005899;28;20198;-72
2022/07/08 02:20:11;;;;;;;10.30;3.93;;;14.40;1.00;;;;;;5006307;28;20492;-71
2022/07/08 02:22:37;;;;;;;11.53;3.90;;;14.20;1.00;;;;;;5004894;28;20453;-71
2022/07/08 02:25:04;;;;;;;9.80;4.03;;;14.20;1.00;;;;;;5008618;28;20413;-72
2022/07/08 02:27:29;;;;;;;7.00;3.67;;;14.20;1.00;;;;;;5004999;28;20567;-71
2022/07/08 02:29:55;;;;;;;10.80;3.50;;;14.10;1.00;;;;;;4998725;28;20523;-71
2022/07/08 02:32:20;;;;;;;12.17;4.57;;;14.10;1.00;;;;;;5012576;28;20178;-71
2022/07/08 02:34:46;;;;;;;10.57;4.33;;;14.00;1.00;;;;;;5007325;28;20190;-71
2022/07/08 02:37:13;;;;;;;9.90;4.20;;;13.90;1.00;;;;;;5007630;28;20266;-72
2022/07/08 02:39:39;;;;;;;8.20;3.60;;;13.90;1.00;;;;;;5005880;28;20166;-71
2022/07/08 02:42:04;;;;;;;8.83;4.83;;;13.80;1.00;;;;;;5007421;28;20446;-71
2022/07/08 02:44:30;;;;;;;9.00;4.13;;;13.60;1.00;;;;;;5008119;28;20247;-72
2022/07/08 02:46:55;;;;;;;5.73;4.30;;;13.50;1.00;;;;;;4991027;28;20198;-70
2022/07/08 02:49:21;;;;;;;6.13;3.97;;;13.50;1.00;;;;;;5007928;28;20407;-71
2022/07/08 02:51:46;;;;;;;10.50;4.07;;;13.40;1.00;;;;;;5009733;28;20214;-71
2022/07/08 02:54:12;;;;;;;8.37;4.23;;;13.40;1.00;;;;;;5008780;28;20206;-71
2022/07/08 02:56:37;;;;;;;9.77;4.03;;;13.30;1.00;;;;;;5011567;28;20197;-71
2022/07/08 02:59:03;;;;;;;6.80;3.60;;;13.30;1.00;;;;;;5014183;28;20637;-72
2022/07/08 03:01:29;;;;;;;7.87;4.40;;;13.20;1.00;;;;;;5023673;28;20182;-71
2022/07/08 03:03:55;;;;;;;12.10;3.90;;;13.10;1.00;;;;;;5009987;28;20850;-72
2022/07/08 03:06:20;;;;;;;8.50;4.00;;;14.10;1.00;;;;;;5009459;28;20268;-72
2022/07/08 03:08:46;;;;;;;13.37;4.50;;;13.10;1.00;;;;;;5008663;28;20190;-71
2022/07/08 03:11:12;;;;;;;6.37;3.80;;;13.20;1.00;;;;;;5009127;28;20658;-71
2022/07/08 03:13:38;;;;;;;9.37;4.40;;;13.20;1.00;;;;;;5007725;28;20437;-71
2022/07/08 03:16:04;;;;;;;7.83;3.63;;;13.20;1.00;;;;;;5008819;28;20625;-71
2022/07/08 03:18:34;;;;;;;12.77;4.33;;;13.30;1.00;;;;;;5009834;28;20166;-71
2022/07/08 03:20:59;;;;;;;7.73;4.90;;;13.30;1.00;;;;;;4990823;28;20962;-72
2022/07/08 03:23:25;;;;;;;8.23;4.00;;;13.30;1.00;;;;;;5010444;28;20409;-71
2022/07/08 03:25:51;;;;;;;6.57;3.90;;;13.30;1.00;;;;;;5009599;28;20252;-71
2022/07/08 03:28:16;;;;;;;6.60;3.77;;;13.20;1.00;;;;;;5010754;28;20531;-71
2022/07/08 03:30:42;;;;;;;7.93;4.27;;;13.10;1.00;;;;;;5012626;28;20223;-71
2022/07/08 03:33:07;;;;;;;9.30;4.07;;;13.10;1.00;;;;;;4998561;28;20178;-71
2022/07/08 03:35:33;;;;;;;9.37;4.20;;;13.00;1.00;;;;;;5009862;28;20209;-72
2022/07/08 03:37:59;;;;;;;9.43;4.67;;;13.00;1.00;;;;;;5010362;28;20175;-72
2022/07/08 03:43:09;;;;;;;9.10;4.63;;;13.00;1.00;;;;;;5009068;28;20209;-71
2022/07/08 03:45:34;;;;;;;13.07;4.43;;;12.90;1.00;;;;;;4991905;28;20473;-71
2022/07/08 03:48:03;;;;;;;10.33;4.40;;;12.90;1.00;;;;;;5001489;28;20186;-71
2022/07/08 03:50:29;;;;;;;12.00;4.40;;;12.80;1.00;;;;;;5009307;28;20603;-70
2022/07/08 03:52:55;;;;;;;6.90;3.80;;;12.80;1.00;;;;;;5009402;28;20661;-71
2022/07/08 03:55:23;;;;;;;9.77;4.30;;;12.80;1.00;;;;;;5009761;28;20498;-72
2022/07/08 03:57:48;;;;;;;6.73;4.40;;;12.80;1.00;;;;;;5010420;28;20181;-72
2022/07/08 04:00:14;;;;;;;14.73;4.40;;;12.80;1.00;;;;;;5022252;28;20440;-71
2022/07/08 04:02:39;;;;;;;8.50;4.40;;;12.80;1.00;;;;;;5029163;28;20534;-70
2022/07/08 04:05:05;;;;;;;15.40;4.70;;;12.80;1.00;;;;;;5015262;28;20179;-71
2022/07/08 04:07:32;;;;;;;5.47;3.90;;;12.80;1.00;;;;;;5005573;28;20207;-72
2022/07/08 04:09:58;;;;;;;11.73;4.63;;;12.80;1.00;;;;;;4992253;28;20186;-71
2022/07/08 04:12:23;;;;;;;9.10;4.57;;;12.90;1.00;;;;;;5009778;28;20437;-71
2022/07/08 04:14:49;;;;;;;7.90;4.63;;;13.00;1.00;;;;;;5008723;28;20601;-71
2022/07/08 04:17:15;;;;;;;10.17;4.40;;;13.10;1.00;;;;;;5010152;28;20221;-71
2022/07/08 04:19:40;;;;;;;8.23;4.47;;;13.20;1.00;;;;;;5006015;28;20678;-71
2022/07/08 04:22:06;;;;;;;6.00;4.00;;;13.40;1.00;;;;;;5009131;28;20186;-72
2022/07/08 04:24:31;;;;;;;6.87;4.07;;;13.70;1.00;;;;;;5008561;28;20217;-72
2022/07/08 04:26:57;;;;;;;10.53;4.47;;;13.70;1.00;;;;;;5009179;28;20198;-71
2022/07/08 04:29:22;;;;;;;7.60;4.30;;;13.90;1.00;;;;;;5015764;28;20186;-72
2022/07/08 04:31:48;;;;;;;7.70;4.10;;;14.10;1.00;;;;;;5024862;28;20650;-71
2022/07/08 04:34:13;;;;;;;7.07;4.10;;;14.30;1.00;;;;;;4991294;28;20664;-71
2022/07/08 04:36:39;;;;;;;8.30;4.50;;;14.40;1.00;;;;;;4991295;28;20257;-71
2022/07/08 04:39:04;;;;;;;13.30;4.90;;;14.80;1.00;;;;;;5006358;28;20579;-74
2022/07/08 04:41:30;;;;;;;10.50;5.13;;;14.50;1.00;;;;;;5008961;28;20249;-72
2022/07/08 04:43:55;;;;;;;16.70;4.40;;;14.60;1.00;;;;;;5008374;28;20190;-73
2022/07/08 04:46:21;;;;;;;7.63;4.57;;;14.70;1.00;;;;;;5007879;28;20208;-72
2022/07/08 04:48:46;;;;;;;7.20;4.27;;;14.90;1.00;;;;;;5007432;28;20700;-71
2022/07/08 04:51:12;;;;;;;5.33;4.10;;;14.90;1.00;;;;;;5007937;28;20217;-73
2022/07/08 04:53:37;;;;;;;9.10;4.37;;;15.00;1.00;;;;;;5003590;28;20210;-73
2022/07/08 04:56:03;;;;;;;17.13;4.93;;;15.20;1.00;;;;;;5009064;28;20191;-71
2022/07/08 04:58:29;;;;;;;7.67;4.33;;;15.30;1.00;;;;;;5007821;28;20537;-71
2022/07/08 05:00:54;;;;;;;7.63;4.07;;;15.40;1.00;;;;;;5009848;28;20636;-72
2022/07/08 05:03:20;;;;;;;7.80;3.97;;;15.50;1.00;;;;;;5011161;28;20183;-73
2022/07/08 05:05:45;;;;;;;12.60;4.23;;;15.60;1.00;;;;;;5009108;28;20241;-71
2022/07/08 05:08:11;;;;;;;8.60;4.20;;;;;;;;;;5006702;28;20742;-72
2022/07/08 05:10:37;;;;;;;7.97;4.00;;;15.70;1.00;;;;;;4990755;28;20202;-72
2022/07/08 05:13:05;;;;;;;10.03;3.83;;;15.80;1.00;;;;;;5007274;28;20425;-73
2022/07/08 05:15:31;;;;;;;8.87;3.60;;;18.70;1.00;;;;;;5009656;28;20280;-72
2022/07/08 05:17:56;;;;;;;6.97;3.53;;;16.00;1.00;;;;;;4990064;28;20533;-72
2022/07/08 05:20:22;;;;;;;12.30;3.63;;;16.10;1.00;;;;;;5006207;28;20186;-72
2022/07/08 05:22:47;;;;;;;7.03;3.43;;;16.10;1.00;;;;;;5006172;28;20194;-73
2022/07/08 05:25:13;;;;;;;13.07;4.37;;;18.50;1.00;;;;;;5006800;28;20198;-73
2022/07/08 05:27:39;;;;;;;9.70;3.90;;;16.30;1.00;;;;;;5006779;28;20210;-72
2022/07/08 05:30:07;;;;;;;13.63;3.80;;;16.40;1.00;;;;;;5015538;28;20447;-73
2022/07/08 05:32:33;;;;;;;7.00;3.50;;;16.50;1.00;;;;;;5017120;28;20261;-73
2022/07/08 05:34:59;;;;;;;15.57;3.70;;;16.60;1.00;;;;;;5005799;28;20809;-73
2022/07/08 05:37:24;;;;;;;6.90;3.20;;;16.60;1.00;;;;;;5004034;28;20210;-77
2022/07/08 05:39:50;;;;;;;11.77;3.90;;;16.40;1.00;;;;;;4987294;28;20641;-74
2022/07/08 05:42:15;;;;;;;6.30;3.70;;;16.70;1.00;;;;;;5007104;28;20189;-72
2022/07/08 05:44:41;;;;;;;11.30;4.20;;;16.50;1.00;;;;;;5005106;28;20277;-72
2022/07/08 05:47:08;;;;;;;13.63;4.43;;;17.00;1.00;;;;;;5002903;28;20269;-72
2022/07/08 05:49:35;;;;;;;9.53;3.90;;;16.90;1.00;;;;;;5004211;28;20185;-72
2022/07/08 05:52:01;;;;;;;8.77;3.70;;;16.90;1.00;;;;;;5006923;28;20527;-73
2022/07/08 05:54:27;;;;;;;8.80;4.30;;;16.90;1.00;;;;;;5007641;28;20766;-72
2022/07/08 05:56:52;;;;;;;9.23;4.60;;;16.90;1.00;;;;;;5000487;28;20552;-73
2022/07/08 05:59:18;;;;;;;11.13;3.80;;;16.50;1.00;;;;;;4990138;28;20177;-73
2022/07/08 06:01:43;;;;;;;6.97;3.43;;;17.10;1.00;;;;;;5008635;28;20213;-73
2022/07/08 06:04:09;;;;;;;11.97;3.87;;;17.20;1.00;;;;;;5007140;28;20209;-72
2022/07/08 06:06:34;;;;;;;6.93;3.73;;;17.40;1.00;;;;;;5004386;28;20213;-72
2022/07/08 06:09:00;;;;;;;8.03;4.10;;;17.50;1.00;;;;;;5007265;28;20178;-72
2022/07/08 06:11:25;;;;;;;8.00;3.47;;;17.70;1.00;;;;;;5015025;28;20680;-72
2022/07/08 06:13:51;;;;;;;9.03;3.83;;;17.90;1.00;;;;;;5004211;28;20224;-72
2022/07/08 06:16:16;;;;;;;8.80;3.90;;;18.00;1.00;;;;;;5006281;28;20898;-72
2022/07/08 06:18:42;;;;;;;8.63;3.80;;;18.30;1.00;;;;;;4983535;28;20820;-73
2022/07/08 06:21:07;;;;;;;6.77;3.30;;;18.40;1.00;;;;;;4999908;28;20191;-73
2022/07/08 06:23:35;;;;;;;10.70;3.50;;;18.40;1.00;;;;;;5012214;28;20261;-73
2022/07/08 06:26:00;;;;;;;11.30;3.60;;;19.10;1.00;;;;;;5017914;28;20228;-73
2022/07/08 06:28:26;;;;;;;8.10;3.40;;;;;;;;;;5019460;28;20891;-73
2022/07/08 06:30:52;;;;;;;6.80;3.23;;;18.60;1.00;;;;;;5013479;28;20263;-74
2022/07/08 06:33:17;;;;;;;12.13;3.13;;;18.50;1.00;;;;;;5022427;28;20527;-74
2022/07/08 06:35:43;;;;;;;7.43;3.10;;;18.40;1.00;;;;;;5009854;28;20228;-73
2022/07/08 06:38:08;;;;;;;8.30;3.50;;;18.40;1.00;;;;;;4993545;28;20182;-73
2022/07/08 06:40:34;;;;;;;8.37;3.10;;;18.30;1.00;;;;;;5009938;28;20267;-73
2022/07/08 06:42:59;;;;;;;16.10;3.83;;;18.20;1.00;;;;;;5018746;28;20179;-73
2022/07/08 06:45:25;;;;;;;6.77;2.90;;;18.10;1.00;;;;;;5010389;28;20190;-73
2022/07/08 06:47:50;;;;;;;7.90;2.83;;;18.10;1.00;;;;;;5009464;28;20175;-73
2022/07/08 06:50:16;;;;;;;7.37;3.30;;;18.10;1.00;;;;;;5011071;28;20198;-73
2022/07/08 06:52:42;;;;;;;11.87;3.13;;;18.10;1.00;;;;;;5005887;28;20738;-73
2022/07/08 06:55:07;;;;;;;10.53;3.00;;;18.20;1.00;;;;;;5008705;28;20187;-74
2022/07/08 06:57:33;;;;;;;9.47;2.70;;;18.20;1.00;;;;;;4995822;28;20202;-72
2022/07/08 06:59:59;;;;;;;7.23;3.00;;;18.30;1.00;;;;;;5005534;28;20803;-73
2022/07/08 07:02:24;;;;;;;6.63;2.70;;;18.40;1.00;;;;;;4993611;28;20923;-72
2022/07/08 07:04:50;;;;;;;7.63;2.27;;;18.50;1.00;;;;;;4999420;28;20633;-74
2022/07/08 07:07:15;;;;;;;7.87;2.50;;;18.60;1.00;;;;;;5010112;28;20245;-73
2022/07/08 07:09:41;;;;;;;10.40;2.83;;;18.60;1.00;;;;;;5018265;28;20587;-73
2022/07/08 07:12:07;;;;;;;9.30;2.23;;;18.50;1.00;;;;;;5009915;28;20221;-73
2022/07/08 07:14:34;;;;;;;7.90;2.40;;;18.70;1.00;;;;;;5003944;28;20182;-73
2022/07/08 07:16:59;;;;;;;7.40;2.50;;;18.90;1.00;;;;;;5007728;28;20526;-73
2022/07/08 07:19:26;;;;;;;5.80;2.60;;;19.20;1.00;;;;;;5008670;28;20429;-73
2022/07/08 07:21:52;;;;;;;4.40;2.27;;;19.40;1.00;;;;;;5013395;28;20190;-73
2022/07/08 07:24:17;;;;;;;4.43;2.00;;;19.60;1.00;;;;;;5009534;28;20532;-73
2022/07/08 07:26:43;;;;;;;5.67;2.33;;;19.90;1.00;;;;;;5015644;28;20214;-73
2022/07/08 07:29:09;;;;;;;5.40;2.50;;;19.90;1.00;;;;;;5015216;28;20250;-72
2022/07/08 07:31:35;;;;;;;8.40;2.47;;;20.00;1.00;;;;;;5010757;28;20268;-74
2022/07/08 07:34:02;;;;;;;8.83;2.37;;;20.20;1.00;;;;;;5008458;28;20541;-73
2022/07/08 07:36:27;;;;;;;6.70;2.10;;;20.50;1.00;;;;;;5008807;28;20453;-72
2022/07/08 07:38:53;;;;;;;5.40;2.30;;;20.80;1.00;;;;;;5010617;28;21049;-73
2022/07/08 07:41:19;;;;;;;5.93;2.50;;;20.90;1.00;;;;;;5014829;28;20183;-73
2022/07/08 07:43:44;;;;;;;5.47;2.30;;;21.20;1.00;;;;;;5016210;28;20193;-74
2022/07/08 07:46:10;;;;;;;5.63;2.37;;;21.50;1.00;;;;;;5007099;28;20247;-73
2022/07/08 07:48:36;;;;;;;6.23;2.00;;;21.80;1.00;;;;;;5010828;28;20202;-74
2022/07/08 07:51:02;;;;;;;6.40;2.13;;;;;;;;;;5007006;28;20194;-73
2022/07/08 07:53:27;;;;;;;4.83;1.80;;;22.50;1.00;;;;;;5006582;28;20243;-74
2022/07/08 07:55:53;;;;;;;3.50;1.70;;;23.00;1.00;;;;;;5009816;28;20487;-74
2022/07/08 07:58:19;;;;;;;5.20;2.10;;;22.90;1.00;;;;;;5010164;28;20174;-73
2022/07/08 08:00:45;;;;;;;7.83;1.97;;;23.30;1.00;;;;;;5007435;28;20186;-73
2022/07/08 08:03:11;;;;;;;5.17;1.90;;;23.70;1.00;;;;;;4989039;28;21001;-73
2022/07/08 08:05:38;;;;;;;4.53;1.63;;;23.60;1.00;;;;;;5008278;28;20174;-73
2022/07/08 08:08:04;;;;;;;8.07;2.77;;;23.60;1.00;;;;;;5004473;28;20190;-74
2022/07/08 08:10:30;;;;;;;4.63;1.90;;;;;;;;;;4992633;28;21041;-74
2022/07/08 08:12:56;;;;;;;3.90;1.80;;;23.50;1.00;;;;;;5018050;28;20252;-74
2022/07/08 08:15:23;;;;;;;5.47;2.00;;;23.40;1.00;;;;;;5014920;28;20320;-73
2022/07/08 08:17:49;;;;;;;6.20;1.77;;;23.60;1.00;;;;;;5017985;28;20197;-74
2022/07/08 08:20:14;;;;;;;4.90;2.13;;;23.80;1.00;;;;;;5011019;28;20428;-73
2022/07/08 08:22:40;;;;;;;5.10;2.30;;;24.40;1.00;;;;;;5017713;28;20677;-73
2022/07/08 08:25:06;;;;;;;5.30;2.20;;;24.70;1.00;;;;;;5010507;28;20586;-73
2022/07/08 08:27:31;;;;;;;7.93;2.60;;;24.80;1.00;;;;;;5009651;28;20251;-75
2022/07/08 08:29:57;;;;;;;6.00;2.10;;;24.80;1.00;;;;;;5007532;28;20185;-74
2022/07/08 08:32:22;;;;;;;7.10;2.20;;;24.80;1.00;;;;;;5008198;28;20182;-73
2022/07/08 08:34:48;;;;;;;7.93;2.33;;;24.70;1.00;;;;;;5013413;28;20194;-74
2022/07/08 08:37:14;;;;;;;10.67;2.10;;;24.60;1.00;;;;;;5007576;28;20717;-74
2022/07/08 08:39:40;;;;;;;7.03;2.30;;;24.80;1.00;;;;;;4992062;28;20208;-74
2022/07/08 08:42:07;;;;;;;6.37;2.47;;;;;;;;;;5010532;28;20428;-73
2022/07/08 08:44:33;;;;;;;7.17;2.40;;;24.50;1.00;;;;;;5021941;28;21048;-73
2022/07/08 08:47:02;;;;;;;8.47;2.63;;;24.40;1.00;;;;;;5013600;28;20487;-73
2022/07/08 08:49:34;;;;;;;6.20;2.20;;;24.10;1.00;;;;;;5014840;28;20334;-73
2022/07/08 08:52:02;;;;;;;6.33;2.23;;;23.60;1.00;;;;;;5013710;28;21015;-73
2022/07/08 08:54:31;;;;;;;4.53;2.00;;;23.30;1.00;;;;;;5020450;28;20435;-74
2022/07/08 08:56:57;;;;;;;11.17;2.23;;;23.10;1.00;;;;;;5012166;28;20479;-74
2022/07/08 08:59:23;;;;;;;6.87;2.00;;;23.60;1.00;;;;;;5007875;28;20429;-73
2022/07/08 09:01:49;;;;;;;6.50;2.50;;;24.40;1.00;;;;;;4989739;28;20190;-73
2022/07/08 09:04:15;;;;;;;5.67;1.80;;;25.10;1.00;;;;;;5012676;28;20722;-73
2022/07/08 09:06:41;;;;;;;5.60;2.10;;;;;;;;;;5020581;28;20745;-74
2022/07/08 09:09:07;;;;;;;5.60;1.90;;;26.60;1.00;;;;;;5010160;28;20436;-73
2022/07/08 09:11:34;;;;;;;5.20;2.40;;;27.60;1.00;;;;;;5006637;28;20284;-74
2022/07/08 09:14:22;;;;;;;6.73;2.30;;;26.70;1.00;;;;;;5009229;28;20166;-74
2022/07/08 09:17:09;;;;;;;4.07;1.93;;;25.60;1.00;;;;;;5006193;28;20476;-74
2022/07/08 09:19:41;;;;;;;4.87;2.20;;;24.50;1.00;;;;;;5012686;28;20776;-74
2022/07/08 09:22:07;;;;;;;4.73;2.20;;;24.20;1.00;;;;;;5007683;28;20528;-74
2022/07/08 09:24:34;;;;;;;4.60;2.00;;;24.40;1.00;;;;;;5005426;28;20524;-73
2022/07/08 09:27:06;;;;;;;5.53;2.00;;;24.00;1.00;;;;;;5008887;28;20487;-74
2022/07/08 09:29:31;;;;;;;7.10;2.20;;;23.90;1.00;;;;;;5007206;28;20938;-74
2022/07/08 09:32:13;;;;;;;6.03;2.10;;;25.00;1.00;;;;;;5008005;28;20459;-74
2022/07/08 09:34:41;;;;;;;7.27;2.37;;;27.20;1.00;;;;;;5006338;28;20561;-74
2022/07/08 09:37:15;;;;;;;5.53;2.20;;;28.30;1.00;;;;;;5010555;28;20456;-74
2022/07/08 09:39:42;;;;;;;3.70;1.73;;;27.80;1.00;;;;;;5008852;28;20700;-74
2022/07/08 09:42:09;;;;;;;6.87;2.13;;;28.60;1.00;;;;;;4987142;28;20235;-74
2022/07/08 09:44:38;;;;;;;4.83;1.97;;;28.30;1.00;;;;;;5005506;28;20197;-76
2022/07/08 09:47:11;;;;;;;6.80;2.20;;;27.50;1.00;;;;;;5016118;28;20464;-74
2022/07/08 09:49:46;;;;;;;9.43;2.50;;;26.90;1.00;;;;;;5005957;28;20540;-74
2022/07/08 09:52:20;;;;;;;6.03;2.10;;;26.40;1.00;;;;;;5007249;28;20197;-77
2022/07/08 09:54:45;;;;;;;6.80;2.03;;;27.40;1.00;;;;;;5010299;28;20243;-74
2022/07/08 09:57:13;;;;;;;5.47;2.40;;;28.60;1.00;;;;;;5020901;28;20276;-74
2022/07/08 09:59:38;;;;;;;5.30;2.20;;;31.80;1.00;;;;;;5007560;28;20166;-74
2022/07/08 10:02:04;;;;;;;7.65;2.30;;;30.80;1.00;;;;;;4988342;28;20617;-74
2022/07/08 10:04:31;;;;;;;4.43;2.05;;;32.20;1.00;;;;;;5000343;28;20717;-75
2022/07/08 10:06:58;;;;;;;6.65;2.30;;;32.80;1.00;;;;;;4983018;28;20748;-75
2022/07/08 10:09:25;;;;;;;5.85;1.98;;;33.40;1.00;;;;;;4999288;28;20738;-75
2022/07/08 10:11:51;;;;;;;7.50;2.20;;;33.30;1.00;;;;;;5008025;28;20223;-75
2022/07/08 10:14:18;;;;;;;6.13;1.88;;;33.90;1.00;;;;;;5020918;28;20169;-75
2022/07/08 10:16:46;;;;;;;7.43;1.90;;;34.30;1.00;;;;;;5006013;28;20194;-75
2022/07/08 10:19:24;;;;;;;5.15;2.05;;;34.10;1.00;;;;;;4993279;28;20269;-75
2022/07/08 10:21:54;;;;;;;8.27;2.28;;;34.50;1.00;;;;;;5018238;28;20235;-75
2022/07/08 10:24:27;;;;;;;5.40;1.75;;;34.70;1.00;;;;;;5015541;28;20185;-75
2022/07/08 10:26:58;;;;;;;6.35;2.20;;;34.80;1.00;;;;;;5001707;28;20503;-75
2022/07/08 10:29:31;;;;;;;4.65;1.95;;;35.10;1.00;;;;;;5004561;28;20178;-75
2022/07/08 10:31:57;;;;;;;5.97;2.22;;;34.60;1.00;;;;;;5018698;28;20215;-75
2022/07/08 10:34:31;;;;;;;4.72;1.90;;;33.20;1.00;;;;;;5016770;28;20691;-74
2022/07/08 10:36:57;;;;;;;4.63;1.80;;;33.20;1.00;;;;;;4994014;28;20197;-75
2022/07/08 10:39:39;;;;;;;4.68;1.60;;;33.20;1.00;;;;;;5012347;28;20704;-75
2022/07/08 10:42:09;;;;;;;4.88;2.10;;;33.80;1.00;;;;;;5009371;28;20584;-74
2022/07/08 10:44:44;;;;;;;5.40;2.05;;;35.00;1.00;;;;;;5011457;28;20182;-74
2022/07/08 10:47:12;;;;;;;17.13;2.22;;;35.70;1.00;;;;;;4983279;28;20201;-75
2022/07/08 10:49:44;;;;;;;4.05;1.70;;;36.20;1.00;;;;;;5003616;28;20216;-75
2022/07/08 10:52:11;;;;;;;5.00;1.90;;;35.90;1.00;;;;;;5008630;28;20220;-75
2022/07/08 10:54:37;;;;;;;5.32;2.05;;;36.00;1.00;;;;;;4995449;28;20178;-74
2022/07/08 10:57:08;;;;;;;4.97;1.75;;;36.20;1.00;;;;;;5017066;28;20219;-75
2022/07/08 10:59:36;;;;;;;12.10;2.30;;;37.40;1.00;;;;;;5010995;28;20269;-75
2022/07/08 11:02:12;;;;;;;7.05;2.13;;;37.00;1.00;;;;;;4992063;28;20616;-75
2022/07/08 11:04:37;;;;;;;5.55;2.00;;;36.00;1.00;;;;;;4999388;28;20668;-75
2022/07/08 11:10:05;;;;;;;9.30;2.00;;;36.60;1.00;;;;;;5019999;28;20561;-74
2022/07/08 11:12:36;;;;;;;12.32;2.17;;;37.10;1.00;;;;;;4987981;28;20179;-75
2022/07/08 11:15:06;;;;;;;4.25;2.17;;;37.60;1.00;;;;;;5015551;28;20249;-75
2022/07/08 11:17:34;;;;;;;4.90;2.30;;;37.30;1.00;;;;;;5016132;28;20196;-75
2022/07/08 11:20:03;;;;;;;9.95;2.28;;;37.20;1.00;;;;;;5004723;28;20678;-75
2022/07/08 11:22:34;;;;;;;5.32;2.38;;;37.00;1.00;;;;;;5010477;28;20609;-75
2022/07/08 11:24:59;;;;;;;5.00;2.15;;;36.50;1.00;;;;;;5011207;28;20177;-75
2022/07/08 11:27:27;;;;;;;4.88;2.13;;;37.10;1.00;;;;;;5021003;28;20200;-76
2022/07/08 11:29:54;;;;;;;5.35;1.80;;;37.90;1.00;;;;;;5018393;28;20189;-75
2022/07/08 11:32:21;;;;;;;6.78;2.10;;;38.20;1.00;;;;;;5014206;28;20204;-75
2022/07/08 11:34:48;;;;;;;6.25;2.15;;;38.20;1.00;;;;;;5010890;28;20692;-75
2022/07/08 11:37:15;;;;;;;5.35;2.15;;;38.20;1.00;;;;;;5009110;28;20326;-75
2022/07/08 11:39:45;;;;;;;5.18;2.10;;;38.50;1.00;;;;;;5009358;28;20301;-75
2022/07/08 11:42:15;;;;;;;4.80;1.88;;;38.60;1.00;;;;;;5009974;28;20166;-74
2022/07/08 11:44:41;;;;;;;3.92;1.83;;;39.20;1.00;;;;;;5012908;28;20206;-76
2022/07/08 11:47:07;;;;;;;4.10;1.63;;;39.10;1.00;;;;;;5019560;28;20224;-75
2022/07/08 11:49:40;;;;;;;4.78;1.80;;;39.50;1.00;;;;;;5010606;28;20185;-76
2022/07/08 11:52:05;;;;;;;4.50;1.80;;;39.50;1.00;;;;;;5011672;28;20640;-75
2022/07/08 11:54:31;;;;;;;4.20;2.00;;;39.30;1.00;;;;;;5016038;28;20176;-76
2022/07/08 11:56:59;;;;;;;4.28;1.70;;;39.50;1.00;;;;;;4989788;28;20247;-75
2022/07/08 11:59:30;;;;;;;4.90;1.90;;;39.50;1.00;;;;;;5008267;28;20257;-75
2022/07/08 12:01:57;;;;;;;4.68;2.00;;;38.90;1.00;;;;;;5022665;28;20659;-75
2022/07/08 12:04:24;;;;;;;11.48;2.40;;;39.10;1.00;;;;;;5014657;28;20193;-75
2022/07/08 12:07:00;;;;;;;4.32;1.58;;;39.70;1.00;;;;;;5015888;28;20209;-75
2022/07/08 12:09:28;;;;;;;6.88;1.80;;;39.00;1.00;;;;;;4990327;28;20185;-75
2022/07/08 12:11:56;;;;;;;4.50;1.80;;;38.60;1.00;;;;;;5016431;28;20230;-75
2022/07/08 12:14:23;;;;;;;4.90;1.80;;;39.80;1.00;;;;;;5008601;28;20181;-75
2022/07/08 12:16:54;;;;;;;6.22;2.00;;;39.80;1.00;;;;;;5013558;28;20758;-75
2022/07/08 12:19:27;;;;;;;9.25;2.15;;;39.60;1.00;;;;;;4989804;28;20266;-75
2022/07/08 12:21:53;;;;;;;5.70;1.88;;;39.40;1.00;;;;;;5016648;28;20182;-75
2022/07/08 12:24:37;;;;;;;5.40;1.95;;;38.90;1.00;;;;;;4997907;28;20293;-74
2022/07/08 12:27:10;;;;;;;7.22;2.20;;;38.40;1.00;;;;;;5002310;28;20632;-75
2022/07/08 12:29:38;;;;;;;8.38;1.90;;;38.20;1.00;;;;;;4988200;28;20676;-74
2022/07/08 12:32:07;;;;;;;9.65;2.10;;;38.60;1.00;;;;;;5001731;28;20247;-74
2022/07/08 12:34:34;;;;;;;7.78;2.00;;;38.80;1.00;;;;;;5020097;28;20194;-75
2022/07/08 12:37:14;;;;;;;5.55;2.08;;;38.50;1.00;;;;;;5001541;28;20644;-75
2022/07/08 12:39:39;;;;;;;4.68;1.75;;;39.10;1.00;;;;;;5008700;28;20186;-75
2022/07/08 12:42:05;;;;;;;7.95;2.13;;;39.10;1.00;;;;;;5010660;28;20240;-75
2022/07/08 12:44:34;;;;;;;4.50;1.83;;;38.90;1.00;;;;;;5007945;28;20182;-76
2022/07/08 12:47:00;;;;;;;8.55;2.08;;;39.10;1.00;;;;;;5010184;28;20206;-75
2022/07/08 12:49:30;;;;;;;3.75;1.80;;;39.80;1.00;;;;;;5004711;28;20178;-74
2022/07/08 12:51:57;;;;;;;4.60;1.95;;;40.30;1.00;;;;;;4988627;28;20296;-75
2022/07/08 12:54:23;;;;;;;6.95;1.70;;;40.30;1.00;;;;;;5009160;28;20656;-74
2022/07/08 12:56:50;;;;;;;7.20;2.72;;;40.30;1.00;;;;;;5013122;28;20202;-76
2022/07/08 12:59:16;;;;;;;7.25;2.08;;;40.60;1.00;;;;;;5011197;28;20184;-75
2022/07/08 13:01:42;;;;;;;5.93;1.88;;;40.80;1.00;;;;;;4996117;28;20181;-76